createdAt,value
2022-11-01T00:10:37.576Z,65.88
2022-11-01T00:21:04.919Z,66.64
2022-11-01T00:31:32.293Z,67.10
2022-11-01T00:41:59.709Z,66.91
2022-11-01T00:52:26.996Z,67.14
2022-11-01T01:02:54.397Z,67.26
2022-11-01T01:13:22.101Z,67.49
2022-11-01T01:23:51.452Z,67.08
2022-11-01T01:34:19.183Z,67.49
2022-11-01T01:45:11.991Z,67.73
2022-11-01T01:55:44.087Z,67.83
2022-11-01T02:06:13.837Z,67.76
2022-11-01T02:16:53.564Z,68.10
2022-11-01T02:27:28.800Z,68.79
2022-11-01T02:38:02.628Z,69.62
2022-11-01T02:48:30.392Z,70.75
2022-11-01T02:58:59.091Z,71.19
2022-11-01T03:09:26.869Z,71.63
2022-11-01T03:20:00.692Z,71.90
2022-11-01T03:30:30.628Z,72.04
2022-11-01T03:41:01.575Z,72.25
2022-11-01T03:51:28.953Z,72.62
2022-11-01T04:01:56.386Z,73.01
2022-11-01T04:12:23.827Z,73.11
2022-11-01T04:22:51.135Z,73.29
2022-11-01T04:33:18.551Z,73.57
2022-11-01T04:43:46.009Z,73.82
2022-11-01T04:54:13.419Z,73.84
2022-11-01T05:04:40.669Z,73.71
2022-11-01T05:15:10.683Z,73.66
2022-11-01T05:25:38.442Z,73.95
2022-11-01T05:36:06.381Z,73.83
2022-11-01T05:46:33.647Z,72.63
2022-11-01T05:57:00.972Z,72.49
2022-11-01T06:07:28.756Z,72.30
2022-11-01T06:17:59.872Z,71.56
2022-11-01T06:28:27.559Z,71.13
2022-11-01T06:38:54.896Z,71.59
2022-11-01T06:49:22.365Z,72.17
2022-11-01T06:59:49.756Z,72.75
2022-11-01T07:10:17.252Z,73.01
2022-11-01T07:20:44.598Z,73.45
2022-11-01T07:31:12.156Z,74.03
2022-11-01T07:41:39.679Z,74.12
2022-11-01T07:52:07.065Z,74.17
2022-11-01T08:02:34.998Z,74.33
2022-11-01T08:13:07.565Z,74.31
2022-11-01T08:23:34.865Z,73.75
2022-11-01T08:34:02.244Z,73.30
2022-11-01T08:44:29.769Z,72.66
2022-11-01T08:54:57.173Z,72.17
2022-11-01T09:05:24.637Z,71.40
2022-11-01T09:15:52.699Z,70.50
2022-11-01T09:26:20.171Z,69.89
2022-11-01T09:36:47.831Z,69.62
2022-11-01T09:47:20.566Z,69.03
2022-11-01T09:57:54.503Z,68.69
2022-11-01T10:08:37.062Z,68.49
2022-11-01T10:19:11.551Z,68.72
2022-11-01T10:29:47.453Z,68.22
2022-11-01T10:40:21.033Z,68.07
2022-11-01T10:50:49.181Z,67.69
2022-11-01T11:01:22.066Z,67.41
2022-11-01T11:11:50.988Z,67.64
2022-11-01T11:22:18.608Z,67.45
2022-11-01T11:32:50.568Z,66.96
2022-11-01T11:43:24.295Z,66.70
2022-11-01T11:54:22.412Z,66.85
2022-11-01T12:04:55.242Z,66.39
2022-11-01T12:15:31.061Z,66.30
2022-11-01T12:26:01.307Z,66.29
2022-11-01T12:36:32.781Z,66.04
2022-11-01T12:47:05.629Z,66.45
2022-11-01T12:57:34.925Z,66.53
2022-11-01T13:08:13.866Z,66.69
2022-11-01T13:18:48.977Z,66.54
2022-11-01T13:29:23.062Z,66.45
2022-11-01T13:40:04.721Z,66.83
2022-11-01T13:51:01.485Z,67.01
2022-11-01T14:01:36.500Z,67.26
2022-11-01T14:12:31.073Z,67.13
2022-11-01T14:22:59.816Z,67.37
2022-11-01T14:33:27.271Z,67.75
2022-11-01T14:54:43.393Z,68.11
2022-11-01T15:05:15.315Z,68.43
2022-11-01T15:15:42.745Z,68.84
2022-11-01T15:26:13.346Z,69.27
2022-11-01T15:36:41.788Z,69.56
2022-11-01T15:47:15.858Z,69.97
2022-11-01T15:57:47.005Z,70.15
2022-11-01T16:08:22.821Z,70.18
2022-11-01T16:18:50.363Z,70.39
2022-11-01T16:29:18.240Z,70.55
2022-11-01T16:39:47.052Z,70.51
2022-11-01T16:50:20.002Z,70.76
2022-11-01T17:00:54.702Z,70.92
2022-11-01T17:11:22.461Z,70.92
2022-11-01T17:21:50.518Z,70.91
2022-11-01T17:32:17.882Z,70.86
2022-11-01T17:42:45.226Z,71.06
2022-11-01T17:53:21.735Z,71.34
2022-11-01T18:03:49.437Z,71.58
2022-11-01T18:14:20.810Z,71.74
2022-11-01T18:24:52.825Z,71.83
2022-11-01T18:35:31.905Z,72.06
2022-11-01T18:56:51.720Z,72.59
2022-11-01T19:07:21.653Z,73.08
2022-11-01T19:17:53.160Z,73.26
2022-11-01T19:28:27.751Z,73.35
2022-11-01T19:38:55.703Z,73.32
2022-11-01T19:49:26.285Z,73.48
2022-11-01T19:59:53.889Z,73.58
2022-11-01T20:10:21.227Z,73.67
2022-11-01T20:20:48.544Z,73.88
2022-11-01T20:31:15.830Z,73.96
2022-11-01T20:41:43.176Z,74.14
2022-11-01T20:52:38.135Z,74.25
2022-11-01T21:02:58.989Z,74.21
2022-11-01T21:13:30.224Z,74.27
2022-11-01T21:23:58.581Z,74.52
2022-11-01T21:34:32.073Z,74.64
2022-11-01T21:44:59.980Z,74.82
2022-11-01T21:55:27.313Z,74.85
2022-11-01T22:05:55.084Z,75.02
2022-11-01T22:16:22.688Z,74.99
2022-11-01T22:26:50.013Z,75.08
2022-11-01T22:37:17.300Z,75.16
2022-11-01T22:47:46.134Z,75.38
2022-11-01T22:58:32.524Z,75.19
2022-11-01T23:09:05.583Z,75.13
2022-11-01T23:19:33.628Z,74.95
2022-11-01T23:30:02.704Z,74.87
2022-11-01T23:40:34.676Z,74.57
2022-11-01T23:51:02.152Z,74.55
